createdAt,value
2017-07-05T00:02:11.646Z,58.40
2017-07-05T00:04:39.099Z,58.50
2017-07-05T00:07:06.575Z,58.50
2017-07-05T00:09:34.029Z,58.50
2017-07-05T00:12:01.489Z,58.50
2017-07-05T00:14:28.954Z,58.50
2017-07-05T00:16:56.402Z,58.50
2017-07-05T00:19:23.897Z,58.50
2017-07-05T00:21:51.362Z,58.50
2017-07-05T00:24:18.833Z,58.50
2017-07-05T00:26:47.064Z,58.50
2017-07-05T00:29:14.523Z,58.50
2017-07-05T00:31:41.983Z,58.50
2017-07-05T00:34:09.429Z,58.60
2017-07-05T00:36:36.899Z,58.60
2017-07-05T00:39:04.367Z,58.60
2017-07-05T00:41:31.834Z,58.60
2017-07-05T00:44:00.107Z,58.70
2017-07-05T00:46:28.327Z,58.70
2017-07-05T00:48:55.798Z,58.70
2017-07-05T00:51:23.266Z,58.80
2017-07-05T00:53:50.722Z,58.80
2017-07-05T00:56:18.194Z,58.80
2017-07-05T00:58:45.654Z,58.80
2017-07-05T01:01:13.106Z,58.80
2017-07-05T01:03:40.559Z,58.80
2017-07-05T01:06:08.223Z,58.80
2017-07-05T01:08:35.688Z,58.70
2017-07-05T01:11:03.173Z,58.80
2017-07-05T01:13:31.399Z,58.90
2017-07-05T01:15:58.860Z,58.90
2017-07-05T01:18:26.302Z,58.90
2017-07-05T01:20:53.771Z,59.00
2017-07-05T01:23:21.230Z,59.20
2017-07-05T01:25:48.719Z,59.30
2017-07-05T01:28:16.170Z,59.40
2017-07-05T01:30:43.634Z,59.40
2017-07-05T01:33:11.083Z,59.50
2017-07-05T01:35:39.323Z,59.50
2017-07-05T01:38:06.771Z,59.40
2017-07-05T01:40:34.218Z,59.40
2017-07-05T01:43:01.669Z,59.30
2017-07-05T01:45:29.149Z,59.30
2017-07-05T01:47:56.601Z,59.40
2017-07-05T01:50:24.062Z,59.40
2017-07-05T01:52:51.524Z,59.50
2017-07-05T01:55:18.979Z,59.50
2017-07-05T01:57:46.448Z,59.50
2017-07-05T02:00:13.899Z,59.50
2017-07-05T02:02:41.360Z,59.50
2017-07-05T02:05:08.832Z,59.50
2017-07-05T02:07:37.061Z,60.00
2017-07-05T02:10:04.510Z,59.40
2017-07-05T02:12:32.007Z,59.50
2017-07-05T02:14:59.494Z,59.50
2017-07-05T02:17:26.980Z,59.60
2017-07-05T02:19:54.435Z,59.80
2017-07-05T02:22:21.905Z,59.80
2017-07-05T02:24:49.362Z,59.90
2017-07-05T02:27:16.835Z,59.90
2017-07-05T02:29:44.292Z,59.90
2017-07-05T02:32:11.747Z,59.90
2017-07-05T02:34:39.219Z,59.90
2017-07-05T02:37:06.666Z,59.90
2017-07-05T02:39:34.197Z,59.90
2017-07-05T02:42:01.650Z,59.80
2017-07-05T02:44:29.105Z,59.90
2017-07-05T02:46:56.555Z,59.90
2017-07-05T02:49:24.022Z,59.90
2017-07-05T02:51:51.477Z,59.90
2017-07-05T02:54:18.963Z,60.00
2017-07-05T02:56:46.433Z,60.00
2017-07-05T02:59:13.878Z,60.00
2017-07-05T03:01:41.338Z,60.10
2017-07-05T03:04:08.801Z,60.20
2017-07-05T03:06:36.267Z,60.30
2017-07-05T03:09:03.770Z,60.40
2017-07-05T03:11:31.242Z,60.40
2017-07-05T03:13:58.698Z,60.40
2017-07-05T03:16:26.158Z,60.20
2017-07-05T03:18:53.699Z,60.20
2017-07-05T03:21:21.157Z,60.10
2017-07-05T03:23:48.629Z,60.10
2017-07-05T03:26:16.098Z,60.10
2017-07-05T03:28:43.611Z,60.20
2017-07-05T03:31:11.059Z,60.30
2017-07-05T03:33:38.514Z,60.30
2017-07-05T03:36:05.965Z,60.40
2017-07-05T03:38:33.417Z,60.50
2017-07-05T03:41:00.883Z,60.50
2017-07-05T03:43:28.331Z,60.50
2017-07-05T03:45:55.849Z,60.70
2017-07-05T03:48:23.307Z,60.80
2017-07-05T03:50:50.755Z,60.80
2017-07-05T03:53:18.230Z,60.80
2017-07-05T03:55:45.679Z,60.90
2017-07-05T03:58:13.131Z,60.90
2017-07-05T04:00:40.591Z,60.80
2017-07-05T04:03:08.087Z,60.80
2017-07-05T04:05:35.552Z,60.90
2017-07-05T04:08:03.067Z,60.80
2017-07-05T04:10:30.539Z,60.90
2017-07-05T04:12:58.772Z,61.50
2017-07-05T04:15:26.230Z,61.00
2017-07-05T04:17:53.691Z,61.00
2017-07-05T04:20:21.234Z,61.00
2017-07-05T04:22:48.680Z,61.00
2017-07-05T04:25:16.255Z,61.10
2017-07-05T04:27:43.719Z,61.10
2017-07-05T04:30:11.179Z,61.10
2017-07-05T04:32:38.641Z,61.20
2017-07-05T04:35:06.094Z,61.30
2017-07-05T04:37:33.551Z,61.50
2017-07-05T04:40:01.005Z,61.60
2017-07-05T04:42:28.473Z,61.90
2017-07-05T04:44:56.139Z,62.20
2017-07-05T04:47:23.634Z,62.80
2017-07-05T04:49:52.792Z,63.60
2017-07-05T04:52:21.040Z,64.60
2017-07-05T04:54:48.515Z,63.70
2017-07-05T04:57:15.983Z,64.00
2017-07-05T04:59:43.474Z,64.00
2017-07-05T05:02:10.934Z,64.00
2017-07-05T05:04:38.415Z,63.90
2017-07-05T05:07:05.899Z,63.70
2017-07-05T05:09:33.385Z,63.70
2017-07-05T05:12:01.616Z,64.40
2017-07-05T05:14:29.062Z,63.80
2017-07-05T05:16:56.530Z,63.90
2017-07-05T05:19:24.014Z,63.90
2017-07-05T05:21:51.476Z,64.00
2017-07-05T05:24:19.037Z,63.80
2017-07-05T05:26:46.499Z,63.90
2017-07-05T05:29:14.726Z,63.70
2017-07-05T05:31:42.211Z,64.00
2017-07-05T05:34:09.681Z,64.10
2017-07-05T05:36:37.131Z,64.10
2017-07-05T05:39:04.601Z,64.30
2017-07-05T05:41:32.070Z,64.30
2017-07-05T05:43:59.546Z,64.30
2017-07-05T05:46:27.003Z,63.90
2017-07-05T05:48:54.480Z,64.10
2017-07-05T05:51:21.929Z,63.90
2017-07-05T05:53:49.397Z,63.80
2017-07-05T05:56:16.863Z,63.60
2017-07-05T05:58:44.332Z,63.50
2017-07-05T06:01:11.830Z,63.50
2017-07-05T06:03:39.287Z,63.60
2017-07-05T06:06:06.779Z,63.50
2017-07-05T06:08:34.263Z,63.90
2017-07-05T06:11:01.729Z,64.00
2017-07-05T06:13:29.189Z,64.00
2017-07-05T06:15:56.712Z,64.20
2017-07-05T06:18:24.170Z,64.40
2017-07-05T06:20:51.618Z,64.30
2017-07-05T06:23:19.190Z,64.20
2017-07-05T06:25:46.643Z,64.00
2017-07-05T06:28:14.087Z,63.60
2017-07-05T06:30:41.896Z,63.40
2017-07-05T06:33:09.347Z,63.50
2017-07-05T06:35:36.793Z,63.50
2017-07-05T06:38:04.263Z,63.10
2017-07-05T06:40:31.727Z,63.00
2017-07-05T06:42:59.955Z,62.60
2017-07-05T06:45:27.430Z,62.50
2017-07-05T06:47:54.880Z,62.30
2017-07-05T06:50:22.418Z,62.60
2017-07-05T06:52:49.887Z,62.60
2017-07-05T06:55:17.341Z,62.50
2017-07-05T06:57:44.787Z,62.60
2017-07-05T07:00:12.255Z,62.90
2017-07-05T07:02:39.711Z,62.80
2017-07-05T07:05:07.295Z,62.80
2017-07-05T07:07:34.763Z,62.80
2017-07-05T07:10:02.392Z,62.90
2017-07-05T07:12:30.005Z,62.80
2017-07-05T07:14:58.263Z,62.90
2017-07-05T07:17:25.718Z,62.90
2017-07-05T07:19:53.179Z,62.70
2017-07-05T07:22:21.401Z,63.70
2017-07-05T07:24:48.873Z,62.80
2017-07-05T07:27:16.331Z,63.00
2017-07-05T07:29:43.827Z,63.20
2017-07-05T07:32:12.055Z,63.50
2017-07-05T07:34:39.507Z,63.30
2017-07-05T07:37:07.127Z,63.10
2017-07-05T07:39:34.666Z,62.70
2017-07-05T07:42:02.112Z,62.10
2017-07-05T07:44:29.575Z,62.20
2017-07-05T07:46:57.020Z,62.30
2017-07-05T07:49:24.502Z,62.30
2017-07-05T07:51:52.206Z,62.20
2017-07-05T07:54:19.708Z,62.20
2017-07-05T07:56:47.226Z,62.20
2017-07-05T07:59:14.757Z,62.30
2017-07-05T08:01:42.970Z,62.20
2017-07-05T08:04:10.455Z,62.10
2017-07-05T08:06:37.947Z,62.00
2017-07-05T08:09:05.472Z,62.00
2017-07-05T08:11:32.955Z,62.00
2017-07-05T08:14:01.411Z,62.20
2017-07-05T08:16:28.873Z,62.10
2017-07-05T08:18:56.338Z,62.20
2017-07-05T08:21:24.911Z,63.20
2017-07-05T08:23:52.434Z,62.40
2017-07-05T08:26:19.851Z,62.30
2017-07-05T08:28:47.437Z,62.40
2017-07-05T08:31:14.921Z,62.30
2017-07-05T08:33:42.403Z,62.30
2017-07-05T08:36:10.649Z,62.10
2017-07-05T08:38:38.111Z,62.90
2017-07-05T08:41:05.562Z,62.30
2017-07-05T08:43:33.035Z,62.40
2017-07-05T08:46:00.489Z,62.50
2017-07-05T08:48:27.953Z,62.40
2017-07-05T08:50:55.805Z,62.30
2017-07-05T08:53:23.290Z,63.00
2017-07-05T08:55:50.776Z,63.00
2017-07-05T08:58:18.234Z,63.10
2017-07-05T09:00:45.696Z,63.30
2017-07-05T09:03:13.163Z,63.50
2017-07-05T09:05:40.721Z,63.50
2017-07-05T09:08:08.167Z,63.10
2017-07-05T09:10:35.659Z,62.90
2017-07-05T09:13:03.118Z,62.70
2017-07-05T09:15:30.579Z,62.50
2017-07-05T09:17:58.065Z,62.50
2017-07-05T09:20:25.519Z,62.70
2017-07-05T09:22:52.976Z,62.60
2017-07-05T09:25:21.207Z,62.70
2017-07-05T09:27:48.663Z,62.70
2017-07-05T09:30:16.130Z,62.80
2017-07-05T09:32:43.628Z,62.80
2017-07-05T09:35:11.098Z,62.70
2017-07-05T09:37:38.575Z,62.90
2017-07-05T09:40:06.027Z,63.10
2017-07-05T09:42:33.478Z,63.20
2017-07-05T09:45:01.137Z,63.40
2017-07-05T09:47:28.668Z,63.80
2017-07-05T09:49:57.054Z,64.20
2017-07-05T10:59:18.359Z,53.50
2017-07-05T11:08:19.297Z,57.10
2017-07-05T11:16:07.834Z,53.70
2017-07-05T11:18:35.302Z,53.00
2017-07-05T11:21:02.850Z,52.20
2017-07-05T11:23:30.676Z,52.50
2017-07-05T11:25:58.140Z,52.80
2017-07-05T11:28:25.594Z,52.10
2017-07-05T11:30:53.071Z,52.90
2017-07-05T11:33:20.546Z,52.80
2017-07-05T11:35:48.001Z,53.30
2017-07-05T11:38:15.461Z,52.00
2017-07-05T11:40:42.987Z,52.90
2017-07-05T11:43:10.438Z,52.10
2017-07-05T11:45:37.898Z,53.20
2017-07-05T11:48:05.407Z,53.30
2017-07-05T11:50:32.891Z,52.90
2017-07-05T11:53:00.397Z,53.70
2017-07-05T11:55:28.139Z,54.00
2017-07-05T11:57:55.624Z,54.20
2017-07-05T12:00:23.077Z,54.90
2017-07-05T12:02:50.564Z,55.30
2017-07-05T12:05:18.059Z,56.10
2017-07-05T12:07:45.518Z,54.80
2017-07-05T12:10:12.994Z,55.50
2017-07-05T12:12:40.479Z,54.90
2017-07-05T12:15:07.955Z,54.30
2017-07-05T12:17:35.422Z,53.80
2017-07-05T12:20:02.883Z,53.90
2017-07-05T12:22:30.342Z,52.90
2017-07-05T12:24:57.807Z,53.80
2017-07-05T12:27:25.276Z,53.60
2017-07-05T12:29:52.741Z,53.50
2017-07-05T12:32:20.207Z,51.80
2017-07-05T12:34:47.717Z,52.50
2017-07-05T12:37:15.193Z,52.70
2017-07-05T12:39:42.658Z,52.50
2017-07-05T12:42:10.119Z,52.30
2017-07-05T12:44:37.566Z,52.30
2017-07-05T12:47:05.030Z,52.60
2017-07-05T12:49:32.491Z,51.70
2017-07-05T12:51:59.955Z,52.70
2017-07-05T12:54:27.415Z,50.90
2017-07-05T12:56:54.892Z,51.10
2017-07-05T12:59:22.348Z,51.10
2017-07-05T13:01:49.806Z,50.30
2017-07-05T13:04:17.268Z,50.60
2017-07-05T13:06:44.718Z,50.30
2017-07-05T13:09:12.196Z,50.10
2017-07-05T13:11:39.679Z,49.70
2017-07-05T13:14:07.153Z,50.70
2017-07-05T13:16:34.617Z,49.70
2017-07-05T13:19:02.073Z,49.70
2017-07-05T13:21:29.527Z,50.30
2017-07-05T13:23:56.990Z,50.90
2017-07-05T13:26:25.445Z,50.10
2017-07-05T13:28:54.949Z,50.20
2017-07-05T13:31:22.410Z,49.70
2017-07-05T13:33:49.875Z,49.80
2017-07-05T13:36:17.386Z,49.20
2017-07-05T13:38:44.863Z,49.30
2017-07-05T13:41:12.318Z,49.10
2017-07-05T13:43:39.792Z,49.80
2017-07-05T13:46:07.247Z,50.30
2017-07-05T13:48:34.718Z,49.30
2017-07-05T13:51:02.176Z,49.20
2017-07-05T13:53:29.643Z,49.10
2017-07-05T13:55:57.297Z,48.90
2017-07-05T13:58:24.850Z,48.60
2017-07-05T14:00:52.314Z,48.50
2017-07-05T14:03:19.795Z,49.40
2017-07-05T14:05:48.022Z,48.00
2017-07-05T14:08:15.540Z,47.90
2017-07-05T14:10:42.986Z,47.90
2017-07-05T14:13:10.590Z,48.10
2017-07-05T14:15:38.063Z,48.20
2017-07-05T14:18:07.611Z,47.30
2017-07-05T14:20:35.115Z,47.90
2017-07-05T14:23:02.570Z,48.80
2017-07-05T14:25:30.464Z,47.90
2017-07-05T14:27:57.957Z,48.30
2017-07-05T14:30:28.979Z,48.00
2017-07-05T14:32:57.222Z,49.50
2017-07-05T14:35:24.679Z,49.50
2017-07-05T14:37:52.163Z,50.00
2017-07-05T14:40:19.622Z,49.20
2017-07-05T14:42:47.850Z,49.30
2017-07-05T14:45:15.294Z,49.20
2017-07-05T14:47:42.778Z,49.20
2017-07-05T14:50:10.234Z,49.90
2017-07-05T14:52:37.702Z,48.80
2017-07-05T14:55:05.187Z,48.80
2017-07-05T14:57:33.424Z,48.70
2017-07-05T15:00:00.903Z,48.60
2017-07-05T15:02:29.354Z,48.80
2017-07-05T15:04:56.817Z,48.80
2017-07-05T15:07:24.263Z,48.50
2017-07-05T15:09:51.746Z,48.30
2017-07-05T15:12:19.212Z,47.80
2017-07-05T15:14:46.670Z,48.20
2017-07-05T15:17:14.903Z,49.50
2017-07-05T15:19:42.359Z,49.00
2017-07-05T15:22:09.836Z,47.80
2017-07-05T15:24:37.298Z,48.50
2017-07-05T15:27:04.772Z,48.50
2017-07-05T15:29:32.999Z,49.80
2017-07-05T15:32:00.462Z,49.70
2017-07-05T15:34:27.925Z,49.10
2017-07-05T15:36:55.384Z,49.40
2017-07-05T15:39:22.838Z,49.70
2017-07-05T15:41:50.471Z,48.60
2017-07-05T15:44:17.930Z,48.10
2017-07-05T15:46:45.391Z,47.00
2017-07-05T15:49:12.860Z,48.50
2017-07-05T15:51:40.330Z,48.00
2017-07-05T15:54:07.814Z,47.60
2017-07-05T15:56:36.031Z,48.30
2017-07-05T15:59:03.519Z,48.20
2017-07-05T16:01:31.003Z,48.60
2017-07-05T16:03:59.302Z,48.20
2017-07-05T16:06:26.779Z,48.10
2017-07-05T16:08:54.237Z,47.30
2017-07-05T16:11:21.695Z,48.30
2017-07-05T16:13:49.204Z,48.20
2017-07-05T16:16:16.689Z,49.30
2017-07-05T16:18:44.144Z,48.60
2017-07-05T16:21:11.683Z,48.40
2017-07-05T16:23:39.910Z,49.00
2017-07-05T16:26:07.381Z,48.90
2017-07-05T16:28:34.862Z,50.00
2017-07-05T16:31:02.332Z,49.00
2017-07-05T16:33:32.758Z,48.60
2017-07-05T16:36:00.285Z,49.30
2017-07-05T16:38:27.761Z,49.30
2017-07-05T16:40:56.008Z,49.60
2017-07-05T16:43:23.459Z,49.50
2017-07-05T16:45:50.922Z,48.80
2017-07-05T16:48:18.378Z,49.00
2017-07-05T16:50:45.835Z,49.30
2017-07-05T16:53:13.442Z,50.20
2017-07-05T16:55:40.909Z,49.20
2017-07-05T16:58:08.387Z,49.60
2017-07-05T17:00:35.863Z,49.30
2017-07-05T17:03:03.971Z,49.50
2017-07-05T17:05:31.434Z,49.90
2017-07-05T17:07:59.415Z,50.90
2017-07-05T17:10:26.887Z,50.10
2017-07-05T17:12:54.565Z,49.90
2017-07-05T17:15:22.072Z,49.50
2017-07-05T17:17:49.579Z,49.50
2017-07-05T17:20:17.047Z,50.10
2017-07-05T17:22:44.524Z,49.80
2017-07-05T17:25:11.976Z,49.30
2017-07-05T17:27:39.500Z,49.60
2017-07-05T17:30:07.002Z,51.00
2017-07-05T17:32:34.487Z,51.00
2017-07-05T17:35:01.940Z,51.30
2017-07-05T17:37:29.449Z,50.50
2017-07-05T17:39:56.923Z,50.30
2017-07-05T17:42:24.375Z,50.60
2017-07-05T17:44:51.831Z,50.70
2017-07-05T17:47:19.287Z,50.80
2017-07-05T17:49:46.808Z,51.10
2017-07-05T17:52:14.275Z,50.60
2017-07-05T17:54:41.738Z,51.50
2017-07-05T17:57:09.194Z,52.00
2017-07-05T17:59:36.663Z,52.50
2017-07-05T18:02:04.118Z,53.00
2017-07-05T18:04:31.575Z,53.70
2017-07-05T18:06:59.162Z,54.60
2017-07-05T18:09:26.627Z,54.10
2017-07-05T18:11:55.083Z,54.60
2017-07-05T18:14:22.549Z,54.60
2017-07-05T18:16:50.011Z,54.40
2017-07-05T18:19:18.471Z,54.70
2017-07-05T18:21:45.937Z,54.70
2017-07-05T18:24:13.382Z,55.00
2017-07-05T18:26:41.369Z,55.10
2017-07-05T18:29:09.599Z,56.50
2017-07-05T18:31:37.108Z,56.40
2017-07-05T18:34:05.354Z,56.90
2017-07-05T18:36:32.900Z,56.90
2017-07-05T18:39:00.480Z,57.00
2017-07-05T18:41:28.747Z,57.20
2017-07-05T18:43:56.292Z,57.20
2017-07-05T18:46:23.938Z,57.80
2017-07-05T18:48:51.777Z,57.90
2017-07-05T18:51:19.301Z,58.10
2017-07-05T18:53:47.267Z,58.10
2017-07-05T18:56:14.814Z,58.50
2017-07-05T18:58:42.317Z,58.50
2017-07-05T19:01:09.833Z,58.40
2017-07-05T19:03:37.326Z,58.50
2017-07-05T19:06:04.965Z,58.80
2017-07-05T19:08:32.547Z,58.90
2017-07-05T19:11:00.080Z,58.60
2017-07-05T19:13:27.536Z,58.40
2017-07-05T19:15:55.059Z,58.50
2017-07-05T19:18:22.560Z,58.40
2017-07-05T19:20:50.014Z,58.10
2017-07-05T19:23:17.551Z,58.30
2017-07-05T19:25:45.032Z,58.50
2017-07-05T19:28:13.256Z,60.30
2017-07-05T19:30:40.724Z,59.80
2017-07-05T19:33:08.412Z,60.20
2017-07-05T19:35:35.895Z,61.00
2017-07-05T19:38:04.123Z,61.90
2017-07-05T19:40:31.606Z,61.80
2017-07-05T19:42:59.063Z,62.60
2017-07-05T19:45:27.311Z,64.30
2017-07-05T19:47:54.771Z,63.70
2017-07-05T19:50:22.219Z,63.80
2017-07-05T19:52:49.684Z,64.30
2017-07-05T19:55:17.166Z,64.50
2017-07-05T19:57:44.619Z,65.40
2017-07-05T20:00:12.082Z,65.30
2017-07-05T20:02:40.346Z,66.50
2017-07-05T20:05:07.815Z,66.10
2017-07-05T20:07:35.266Z,66.90
2017-07-05T20:10:02.746Z,67.40
2017-07-05T20:12:30.232Z,67.20
2017-07-05T20:14:57.718Z,67.70
2017-07-05T20:17:25.247Z,67.90
2017-07-05T20:19:52.708Z,67.90
2017-07-05T20:22:20.198Z,68.70
2017-07-05T20:24:47.663Z,68.60
2017-07-05T20:27:15.123Z,68.70
2017-07-05T20:29:44.296Z,69.00
2017-07-05T20:32:11.779Z,69.20
2017-07-05T20:34:40.006Z,70.20
2017-07-05T20:37:07.498Z,69.60
2017-07-05T20:39:35.131Z,70.10
2017-07-05T20:42:02.583Z,70.20
2017-07-05T20:44:30.039Z,70.40
2017-07-05T20:46:57.523Z,70.40
2017-07-05T20:49:24.975Z,71.10
2017-07-05T20:51:52.435Z,71.10
2017-07-05T20:54:19.912Z,71.80
2017-07-05T20:56:48.143Z,72.20
2017-07-05T20:59:15.612Z,72.20
2017-07-05T21:01:43.114Z,72.60
2017-07-05T21:04:10.608Z,72.90
2017-07-05T21:06:38.064Z,73.40
2017-07-05T21:09:05.545Z,73.80
2017-07-05T21:11:33.029Z,74.00
2017-07-05T21:14:01.303Z,75.00
2017-07-05T21:16:28.965Z,75.00
2017-07-05T21:18:56.445Z,75.40
2017-07-05T21:21:23.984Z,75.40
2017-07-05T21:23:51.480Z,75.90
2017-07-05T21:26:18.954Z,76.10
2017-07-05T21:28:46.408Z,76.50
2017-07-05T21:31:14.097Z,76.90
2017-07-05T21:33:41.585Z,77.30
2017-07-05T21:36:09.045Z,77.40
2017-07-05T21:38:36.536Z,77.70
2017-07-05T21:41:04.063Z,77.80
2017-07-05T21:43:31.531Z,78.00
2017-07-05T21:45:58.989Z,78.60
2017-07-05T21:48:26.472Z,78.60
2017-07-05T21:50:53.938Z,78.60
2017-07-05T21:53:21.417Z,78.70
2017-07-05T21:55:49.666Z,78.90
2017-07-05T21:58:17.145Z,78.90
2017-07-05T22:00:44.636Z,79.00
2017-07-05T22:03:12.167Z,79.20
2017-07-05T22:05:40.417Z,79.70
2017-07-05T22:08:07.880Z,79.70
2017-07-05T22:10:35.910Z,80.00
2017-07-05T22:13:03.402Z,80.20
2017-07-05T22:15:30.888Z,80.30
2017-07-05T22:17:58.368Z,80.40
2017-07-05T22:20:25.868Z,80.70
2017-07-05T22:22:53.330Z,80.60
2017-07-05T22:25:20.852Z,80.70
2017-07-05T22:27:48.321Z,81.00
2017-07-05T22:30:15.787Z,81.10
2017-07-05T22:32:43.299Z,80.80
2017-07-05T22:35:10.853Z,81.10
2017-07-05T22:37:38.311Z,81.60
2017-07-05T22:40:06.551Z,81.60
2017-07-05T22:42:34.002Z,81.60
2017-07-05T22:45:01.457Z,81.80
2017-07-05T22:47:28.944Z,81.80
2017-07-05T22:49:56.415Z,82.30
2017-07-05T22:52:23.930Z,82.30
2017-07-05T22:54:51.421Z,82.60
2017-07-05T22:57:19.079Z,82.70
2017-07-05T22:59:47.299Z,82.70
2017-07-05T23:02:14.851Z,83.20
2017-07-05T23:04:42.362Z,83.60
2017-07-05T23:07:09.875Z,83.50
2017-07-05T23:09:37.367Z,83.10
2017-07-05T23:12:06.674Z,83.60
2017-07-05T23:14:34.818Z,83.60
2017-07-05T23:17:02.568Z,83.50
2017-07-05T23:19:30.092Z,83.50
2017-07-05T23:21:58.122Z,83.80
2017-07-05T23:24:25.680Z,84.10
2017-07-05T23:26:53.157Z,84.00
2017-07-05T23:29:20.626Z,84.30
2017-07-05T23:31:48.117Z,84.20
2017-07-05T23:34:15.579Z,84.40
2017-07-05T23:36:43.074Z,84.70
2017-07-05T23:39:10.530Z,84.90
2017-07-05T23:41:37.992Z,84.80
2017-07-05T23:44:05.464Z,85.20
2017-07-05T23:46:33.697Z,85.30
2017-07-05T23:49:01.160Z,85.30
2017-07-05T23:51:28.635Z,85.30
2017-07-05T23:53:56.098Z,85.30
2017-07-05T23:56:24.327Z,85.70
2017-07-05T23:58:51.804Z,85.40
